Time;durP1;ratioP1;P1;durP2;ratioP2;P2;SDS_P1;SDS_P2;PMS_P1;PMS_P2;Temp;Humidity;BMP_temperature;BMP_pressure;BME280_temperature;BME280_humidity;BME280_pressure;Samples;Min_cycle;Max_cycle;Signal;HPM_P1;HPM_P2
2023/12/03 00:01:42;;;;;;;8.70;5.90;;;;;;;10.40;98.73;98046.27;78572;1297;3026965;-62
2023/12/03 00:04:09;;;;;;;13.20;7.20;;;;;;;10.27;99.87;98043.98;79733;1294;3012967;-62
2023/12/03 00:06:36;;;;;;;9.60;5.80;;;;;;;10.15;99.94;98039.48;79704;1298;3013140;-65
2023/12/03 00:09:04;;;;;;;7.70;4.50;;;;;;;10.05;100.00;98034.74;78398;1298;3029794;-61
2023/12/03 00:11:31;;;;;;;7.20;4.80;;;;;;;10.39;100.00;98034.74;79779;1294;3013516;-63
2023/12/03 00:13:57;;;;;;;9.00;5.80;;;;;;;10.67;99.85;98031.59;79807;1295;3013195;-63
2023/12/03 00:16:25;;;;;;;10.80;7.30;;;;;;;10.72;99.57;98028.58;78375;1297;3028318;-63
2023/12/03 00:18:52;;;;;;;12.00;6.80;;;;;;;10.34;100.00;98027.83;79588;1298;3013142;-62
2023/12/03 00:21:19;;;;;;;9.00;4.20;;;;;;;10.25;100.00;98023.84;79676;1297;3011801;-61
2023/12/03 00:23:47;;;;;;;10.50;6.30;;;;;;;10.67;100.00;98012.02;78503;1294;3026872;-62
2023/12/03 00:26:14;;;;;;;8.50;5.50;;;;;;;10.99;100.00;98017.71;79810;1295;3013285;-63
2023/12/03 00:28:42;;;;;;;9.80;6.30;;;;;;;11.12;99.96;98009.77;79715;1293;3012210;-63
2023/12/03 00:31:10;;;;;;;9.50;6.20;;;;;;;10.87;100.00;98000.02;78658;1295;3049663;-61
2023/12/03 00:33:36;;;;;;;7.50;4.60;;;;;;;10.68;100.00;97992.98;79762;1297;3013148;-63
2023/12/03 00:36:04;;;;;;;6.30;4.80;;;;;;;10.89;100.00;97986.30;79756;1297;3013807;-62
2023/12/03 00:38:32;;;;;;;8.00;5.00;;;;;;;11.10;100.00;97979.28;78462;1298;3050931;-62
2023/12/03 00:40:59;;;;;;;9.10;5.70;;;;;;;11.10;100.00;97972.77;79560;1295;3020572;-62
2023/12/03 00:43:26;;;;;;;8.80;5.90;;;;;;;10.84;100.00;97977.81;79768;1295;3013687;-60
2023/12/03 00:45:54;;;;;;;6.00;3.80;;;;;;;10.81;100.00;97976.09;78815;1295;3028354;-62
2023/12/03 00:48:21;;;;;;;7.60;4.50;;;;;;;11.05;100.00;97973.17;79700;1297;3013189;-61
2023/12/03 00:50:48;;;;;;;7.90;4.70;;;;;;;11.26;100.00;97972.41;79694;1298;3013212;-62
2023/12/03 00:53:16;;;;;;;10.00;5.90;;;;;;;11.05;100.00;97976.01;78457;1298;3051156;-64
2023/12/03 00:55:43;;;;;;;8.30;5.80;;;;;;;10.88;100.00;97974.13;79661;1295;3020622;-62
2023/12/03 00:58:10;;;;;;;6.00;4.60;;;;;;;10.67;100.00;97969.10;79581;1295;3012095;-62
2023/12/03 01:00:38;;;;;;;5.70;4.10;;;;;;;11.10;100.00;97950.55;78443;1298;3029750;-62
2023/12/03 01:03:05;;;;;;;6.70;5.30;;;;;;;11.30;100.00;97930.55;79674;1297;3021151;-64
2023/12/03 01:05:32;;;;;;;8.00;6.20;;;;;;;11.10;100.00;97936.66;79713;1296;3011693;-62
2023/12/03 01:08:00;;;;;;;8.20;6.50;;;;;;;11.00;100.00;97950.70;78473;1295;3028479;-62
2023/12/03 01:10:27;;;;;;;7.80;4.60;;;;;;;10.77;100.00;97948.11;79726;1295;3014894;-64
2023/12/03 01:12:54;;;;;;;4.80;4.20;;;;;;;11.39;100.00;97930.17;79853;1295;3011886;-63
2023/12/03 01:15:22;;;;;;;6.80;5.30;;;;;;;11.40;100.00;97923.74;78429;1295;3049829;-63
2023/12/03 01:17:49;;;;;;;8.60;6.10;;;;;;;11.36;100.00;97948.22;79873;1298;3013413;-63
2023/12/03 01:20:16;;;;;;;9.10;6.60;;;;;;;11.15;100.00;97952.92;79624;1298;3011728;-63
2023/12/03 01:22:44;;;;;;;8.50;5.10;;;;;;;11.02;100.00;97954.94;78624;1294;3026209;-61
2023/12/03 01:25:11;;;;;;;9.10;4.90;;;;;;;11.35;100.00;97953.77;79802;1296;3013218;-63
2023/12/03 01:27:37;;;;;;;7.60;5.10;;;;;;;11.47;100.00;97954.86;82038;1294;3011279;-63
2023/12/03 01:30:06;;;;;;;7.70;5.70;;;;;;;11.25;100.00;97971.13;78589;1294;3026589;-63
2023/12/03 01:32:33;;;;;;;7.00;5.10;;;;;;;11.14;100.00;97977.14;79651;1294;3013101;-62
2023/12/03 01:35:00;;;;;;;6.30;4.40;;;;;;;10.89;100.00;97987.91;79664;1295;3011688;-62
2023/12/03 01:37:28;;;;;;;8.20;4.40;;;;;;;11.18;100.00;97973.66;78493;1298;3051482;-62
2023/12/03 01:39:55;;;;;;;6.70;4.40;;;;;;;11.26;100.00;97964.55;79846;1294;3012928;-63
2023/12/03 01:42:23;;;;;;;9.00;4.80;;;;;;;11.15;100.00;97975.16;79689;1295;3011564;-63
2023/12/03 01:44:51;;;;;;;8.40;5.10;;;;;;;10.93;100.00;97984.21;78579;1295;3050028;-62
2023/12/03 01:47:19;;;;;;;7.00;3.90;;;;;;;10.80;100.00;97996.70;79708;1298;3013556;-61
2023/12/03 01:49:45;;;;;;;7.90;4.10;;;;;;;11.00;100.00;98010.45;79577;1294;3013356;-61
2023/12/03 01:52:13;;;;;;;9.20;5.20;;;;;;;11.25;100.00;98003.23;78602;1296;3050918;-62
2023/12/03 01:54:43;;;;;;;8.90;5.70;;;;;;;11.14;100.00;98011.53;79705;1294;3018636;-63
2023/12/03 01:57:10;;;;;;;11.10;5.20;;;;;;;11.04;100.00;98010.40;79749;1295;3011870;-62
2023/12/03 01:59:38;;;;;;;8.00;4.30;;;;;;;10.93;100.00;98001.03;78520;1295;3050388;-62
2023/12/03 02:02:05;;;;;;;10.60;4.80;;;;;;;11.23;100.00;97997.76;79693;1295;3013145;-63
2023/12/03 02:04:32;;;;;;;6.60;4.40;;;;;;;11.60;100.00;97986.16;79586;1295;3011990;-63
2023/12/03 02:07:00;;;;;;;7.10;4.60;;;;;;;11.60;100.00;97985.95;78320;1294;3050653;-61
2023/12/03 02:09:27;;;;;;;9.80;5.00;;;;;;;11.20;100.00;98000.46;79766;1295;3013263;-61
2023/12/03 02:11:54;;;;;;;7.00;3.70;;;;;;;11.14;100.00;97997.45;79459;1298;3011602;-62
2023/12/03 02:14:22;;;;;;;7.90;4.20;;;;;;;11.42;100.00;97994.35;78411;1298;3028213;-65
2023/12/03 02:16:48;;;;;;;9.70;4.60;;;;;;;11.79;100.00;97990.46;79838;1297;3011710;-62
2023/12/03 02:19:15;;;;;;;11.30;5.20;;;;;;;11.48;100.00;98003.13;79627;1295;3012920;-61
2023/12/03 02:21:43;;;;;;;13.80;6.10;;;;;;;11.22;100.00;98019.39;78551;1295;3028319;-63
2023/12/03 02:24:10;;;;;;;9.10;4.60;;;;;;;11.31;100.00;98010.20;79795;1295;3018352;-62
2023/12/03 02:26:37;;;;;;;12.40;4.60;;;;;;;11.52;100.00;97991.57;79484;1295;3011654;-63
2023/12/03 02:29:05;;;;;;;10.10;4.80;;;;;;;11.85;100.00;97965.38;78468;1298;3025283;-62
2023/12/03 02:31:32;;;;;;;10.10;5.60;;;;;;;11.60;100.00;97965.15;79612;1295;3016085;-65
2023/12/03 02:34:11;;;;;;;11.10;4.90;;;;;;;11.29;100.00;97965.50;79729;1298;3011778;-62
2023/12/03 02:36:40;;;;;;;6.70;2.80;;;;;;;11.18;100.00;97963.45;78492;1298;3052238;-62
2023/12/03 02:39:06;;;;;;;7.90;3.70;;;;;;;11.63;100.00;97943.27;79817;1298;3012605;-64
2023/12/03 02:41:33;;;;;;;10.20;4.40;;;;;;;11.68;100.00;97927.06;79527;1295;3011894;-64
2023/12/03 02:44:02;;;;;;;10.40;4.10;;;;;;;11.49;100.00;97931.91;78688;1298;3028047;-62
2023/12/03 02:46:29;;;;;;;8.70;4.70;;;;;;;11.27;100.00;97941.84;79766;1298;3013592;-62
2023/12/03 02:48:55;;;;;;;7.30;3.10;;;;;;;11.02;100.00;97940.13;79585;1293;3013042;-63
2023/12/03 02:51:23;;;;;;;7.70;3.60;;;;;;;11.39;100.00;97935.71;78503;1298;3051802;-62
2023/12/03 02:53:51;;;;;;;8.20;4.60;;;;;;;11.49;100.00;97913.61;79655;1295;3013180;-63
2023/12/03 02:56:18;;;;;;;9.30;4.90;;;;;;;11.23;100.00;97930.48;79564;1294;3011594;-62
2023/12/03 02:58:46;;;;;;;12.10;5.50;;;;;;;11.10;100.00;97938.59;78764;1295;3050204;-63
2023/12/03 03:01:13;;;;;;;9.60;4.50;;;;;;;11.14;100.00;97935.11;79706;1298;3013229;-63
2023/12/03 03:03:40;;;;;;;11.80;4.80;;;;;;;11.30;100.00;97936.17;79614;1295;3012976;-63
2023/12/03 03:06:08;;;;;;;11.60;5.30;;;;;;;11.54;100.00;97922.48;78728;1297;3025950;-63
2023/12/03 03:08:35;;;;;;;10.80;4.90;;;;;;;11.32;100.00;97927.86;79774;1294;3013983;-61
2023/12/03 03:11:02;;;;;;;12.10;5.10;;;;;;;11.10;100.00;97933.05;79713;1298;3011701;-61
2023/12/03 03:13:30;;;;;;;13.10;5.00;;;;;;;10.92;100.00;97940.16;78551;1298;3028092;-63
2023/12/03 03:15:56;;;;;;;10.10;4.50;;;;;;;11.25;100.00;97928.86;79556;1298;3013720;-62
2023/12/03 03:18:23;;;;;;;10.10;4.30;;;;;;;11.28;100.00;97922.99;79948;1296;3011691;-62
2023/12/03 03:20:51;;;;;;;12.30;5.00;;;;;;;11.39;100.00;97912.55;78474;1297;3028539;-63
2023/12/03 03:23:18;;;;;;;9.30;4.70;;;;;;;11.29;100.00;97905.00;79773;1293;3011471;-64
2023/12/03 03:25:45;;;;;;;11.50;4.10;;;;;;;11.14;100.00;97907.58;79549;1298;3011484;-63
2023/12/03 03:28:13;;;;;;;14.10;5.00;;;;;;;11.32;100.00;97906.69;78414;1294;3026322;-63
2023/12/03 03:30:40;;;;;;;10.40;4.60;;;;;;;11.38;100.00;97897.66;79728;1295;3013094;-62
2023/12/03 03:33:06;;;;;;;14.20;4.90;;;;;;;11.22;100.00;97896.16;79623;1298;3011647;-63
2023/12/03 03:35:35;;;;;;;17.60;6.00;;;;;;;11.04;100.00;97894.08;78642;1297;3026950;-64
2023/12/03 03:38:02;;;;;;;11.60;3.80;;;;;;;11.00;100.00;97889.34;79698;1298;3013058;-63
2023/12/03 03:40:29;;;;;;;10.70;4.40;;;;;;;11.34;100.00;97877.84;79690;1295;3011617;-65
2023/12/03 03:42:57;;;;;;;12.20;4.70;;;;;;;11.45;100.00;97866.64;78585;1298;3048929;-62
2023/12/03 03:45:24;;;;;;;13.10;5.00;;;;;;;11.10;100.00;97873.92;79686;1298;3018351;-62
2023/12/03 03:47:50;;;;;;;12.00;5.20;;;;;;;10.92;100.00;97874.83;79695;1297;3011928;-62
2023/12/03 03:50:19;;;;;;;10.60;4.20;;;;;;;10.84;100.00;97872.67;78411;1295;3025086;-63
2023/12/03 03:52:46;;;;;;;16.60;5.80;;;;;;;11.08;100.00;97868.83;79831;1297;3013143;-65
2023/12/03 03:55:12;;;;;;;10.00;5.10;;;;;;;10.93;100.00;97872.42;79800;1295;3011595;-62
2023/12/03 03:57:41;;;;;;;17.80;5.00;;;;;;;10.72;100.00;97889.51;78412;1298;3049358;-62
2023/12/03 04:00:08;;;;;;;13.40;4.30;;;;;;;10.64;100.00;97888.77;79588;1298;3013699;-64
2023/12/03 04:02:40;;;;;;;9.90;4.60;;;;;;;10.97;100.00;97890.83;78318;1295;3069349;-62
2023/12/03 04:05:08;;;;;;;16.40;5.60;;;;;;;11.05;100.00;97884.51;79900;1295;3012873;-62
2023/12/03 04:07:35;;;;;;;13.10;4.90;;;;;;;10.89;100.00;97890.29;79879;1295;3011175;-62
2023/12/03 04:10:05;;;;;;;15.10;5.00;;;;;;;10.73;100.00;97903.45;78496;1296;3052700;-63
2023/12/03 04:12:32;;;;;;;12.60;5.00;;;;;;;10.74;100.00;97907.20;79567;1295;3011588;-63
2023/12/03 04:14:59;;;;;;;16.40;5.20;;;;;;;10.86;100.00;97904.57;79618;1295;3013332;-64
2023/12/03 04:17:27;;;;;;;9.40;5.30;;;;;;;10.85;100.00;97905.55;78481;1296;3070197;-63
2023/12/03 04:19:54;;;;;;;13.80;4.90;;;;;;;10.79;100.00;97910.98;79594;1293;3013458;-63
2023/12/03 04:22:21;;;;;;;14.10;5.60;;;;;;;10.83;100.00;97912.23;79703;1295;3011663;-61
2023/12/03 04:24:49;;;;;;;15.80;4.70;;;;;;;10.98;100.00;97914.78;78562;1295;3053466;-63
2023/12/03 04:27:16;;;;;;;11.00;5.10;;;;;;;11.06;100.00;97899.73;79681;1298;3021290;-63
2023/12/03 04:29:43;;;;;;;13.20;5.40;;;;;;;11.01;100.00;97894.71;79631;1297;3011648;-62
2023/12/03 04:32:11;;;;;;;16.30;5.20;;;;;;;10.90;100.00;97890.22;78594;1295;3028027;-64
2023/12/03 04:34:41;;;;;;;8.70;4.00;;;;;;;10.97;100.00;97895.20;79542;1297;3013252;-64
2023/12/03 04:37:10;;;;;;;11.50;5.00;;;;;;;11.15;100.00;97886.69;79208;1295;3013263;-63
2023/12/03 04:39:37;;;;;;;13.10;5.30;;;;;;;11.15;100.00;97890.20;79792;1295;3013689;-63
2023/12/03 04:42:04;;;;;;;14.90;5.20;;;;;;;10.86;100.00;97912.64;79448;1295;3011594;-63
2023/12/03 04:44:32;;;;;;;11.30;4.90;;;;;;;11.02;100.00;97923.54;78466;1295;3024764;-62
2023/12/03 04:46:59;;;;;;;9.30;5.10;;;;;;;11.04;100.00;97922.30;79523;1295;3018577;-62
2023/12/03 04:49:26;;;;;;;11.00;5.20;;;;;;;10.83;100.00;97928.86;79619;1298;3012950;-63
2023/12/03 04:51:54;;;;;;;13.70;5.80;;;;;;;10.78;100.00;97930.67;78450;1295;3026850;-63
2023/12/03 04:54:21;;;;;;;10.20;4.30;;;;;;;10.55;100.00;97935.23;79723;1294;3018935;-63
2023/12/03 04:56:48;;;;;;;10.50;4.90;;;;;;;10.77;100.00;97929.39;79700;1295;3011588;-62
2023/12/03 04:59:16;;;;;;;14.80;6.10;;;;;;;10.90;100.00;97907.57;78448;1298;3053223;-63
2023/12/03 05:01:45;;;;;;;14.40;6.10;;;;;;;10.63;100.00;97899.17;79813;1298;3013169;-63
2023/12/03 05:04:11;;;;;;;12.50;4.80;;;;;;;10.63;100.00;97902.54;79538;1295;3013232;-64
2023/12/03 05:06:40;;;;;;;14.90;4.90;;;;;;;10.87;100.00;97898.34;78452;1298;3055820;-63
2023/12/03 05:09:07;;;;;;;15.30;5.90;;;;;;;10.94;100.00;97905.63;79761;1295;3014906;-62
2023/12/03 05:11:35;;;;;;;12.40;5.80;;;;;;;10.76;100.00;97912.61;79574;1295;3012724;-63
2023/12/03 05:14:03;;;;;;;17.20;5.10;;;;;;;10.65;100.00;97903.23;78369;1298;3053101;-62
2023/12/03 05:16:30;;;;;;;13.50;5.00;;;;;;;10.83;100.00;97899.08;79851;1295;3013371;-62
2023/12/03 05:18:57;;;;;;;15.50;6.00;;;;;;;11.02;100.00;97888.83;79622;1295;3011576;-64
2023/12/03 05:21:25;;;;;;;20.40;6.10;;;;;;;10.97;100.00;97897.32;78573;1298;3026222;-63
2023/12/03 05:23:51;;;;;;;16.80;6.00;;;;;;;10.75;100.00;97918.10;79835;1295;3013410;-62
2023/12/03 05:26:18;;;;;;;19.00;6.50;;;;;;;10.87;100.00;97906.58;79678;1295;3013355;-65
2023/12/03 05:28:46;;;;;;;16.60;6.40;;;;;;;11.07;100.00;97908.70;78445;1298;3028214;-62
2023/12/03 05:31:13;;;;;;;17.20;6.40;;;;;;;11.01;100.00;97922.90;79786;1298;3012635;-63
2023/12/03 05:33:41;;;;;;;18.50;6.80;;;;;;;10.92;100.00;97923.52;79576;1298;3012958;-63
2023/12/03 05:36:19;;;;;;;14.50;6.00;;;;;;;10.73;100.00;97943.19;78477;1295;3055833;-62
2023/12/03 05:38:47;;;;;;;16.60;5.90;;;;;;;11.00;100.00;97931.04;78223;1296;3049309;-63
2023/12/03 05:41:14;;;;;;;22.20;7.30;;;;;;;11.14;100.00;97954.77;79627;1294;3020399;-62
2023/12/03 05:43:41;;;;;;;18.80;7.10;;;;;;;11.06;100.00;97961.71;79910;1295;3011669;-65
2023/12/03 05:46:09;;;;;;;15.80;4.70;;;;;;;10.89;100.00;97953.35;78373;1295;3052797;-62
2023/12/03 05:48:36;;;;;;;21.80;6.70;;;;;;;11.17;100.00;97952.52;79901;1295;3013662;-63
2023/12/03 05:51:09;;;;;;;20.40;6.70;;;;;;;11.22;100.00;97956.83;79702;1293;3013243;-62
2023/12/03 05:53:37;;;;;;;21.40;7.40;;;;;;;11.16;100.00;97946.87;78476;1296;3048294;-65
2023/12/03 05:56:05;;;;;;;18.60;6.00;;;;;;;11.11;100.00;97928.71;79624;1296;3013014;-65
2023/12/03 05:58:31;;;;;;;18.80;6.00;;;;;;;11.03;100.00;97941.48;79631;1298;3012904;-61
2023/12/03 06:01:00;;;;;;;18.40;6.90;;;;;;;11.32;100.00;97940.52;78593;1298;3052962;-62
2023/12/03 06:03:27;;;;;;;28.60;8.40;;;;;;;11.16;100.00;97966.11;79747;1293;3013876;-62
2023/12/03 06:05:53;;;;;;;26.70;7.30;;;;;;;10.97;100.00;97976.00;79718;1295;3011679;-64
2023/12/03 06:08:21;;;;;;;27.20;7.00;;;;;;;10.98;100.00;97974.64;78703;1295;3025981;-63
2023/12/03 06:10:48;;;;;;;20.90;7.70;;;;;;;11.36;100.00;97948.61;80122;1295;3018775;-63
2023/12/03 06:13:15;;;;;;;27.40;8.90;;;;;;;11.05;100.00;97963.02;79868;1295;3012070;-65
2023/12/03 06:15:44;;;;;;;26.90;8.80;;;;;;;11.07;100.00;97963.77;78847;1295;3025880;-62
2023/12/03 06:18:11;;;;;;;22.50;6.70;;;;;;;11.14;100.00;97966.29;79921;1297;3013226;-64
2023/12/03 06:20:38;;;;;;;20.30;6.80;;;;;;;11.36;100.00;97954.79;79748;1294;3011383;-63
2023/12/03 06:23:06;;;;;;;22.30;8.10;;;;;;;11.47;100.00;97966.20;78445;1298;3048937;-62
2023/12/03 06:25:33;;;;;;;25.90;9.40;;;;;;;11.39;100.00;97954.52;79704;1298;3018354;-63
2023/12/03 06:27:59;;;;;;;25.30;8.20;;;;;;;11.40;100.00;97972.30;79647;1295;3011654;-64
2023/12/03 06:30:27;;;;;;;22.10;6.20;;;;;;;11.52;100.00;97987.21;78492;1298;3027467;-62
2023/12/03 06:32:55;;;;;;;21.50;7.70;;;;;;;11.88;100.00;97993.63;77096;1294;3514180;-64
2023/12/03 06:35:21;;;;;;;22.40;7.80;;;;;;;11.95;100.00;97993.85;79533;1295;3011611;-62
2023/12/03 06:37:51;;;;;;;27.80;7.90;;;;;;;11.81;100.00;98010.24;79263;1295;3013211;-65
2023/12/03 06:40:18;;;;;;;21.40;6.60;;;;;;;11.50;100.00;97993.17;79805;1298;3013300;-64
2023/12/03 06:42:44;;;;;;;22.10;6.40;;;;;;;11.56;100.00;97986.85;79589;1295;3011784;-63
2023/12/03 06:45:13;;;;;;;18.30;7.50;;;;;;;11.87;100.00;97981.29;78493;1298;3052148;-64
2023/12/03 06:47:40;;;;;;;28.30;10.40;;;;;;;11.86;100.00;97979.11;79736;1295;3014289;-62
2023/12/03 06:50:07;;;;;;;26.40;9.10;;;;;;;11.87;100.00;97997.13;79521;1295;3011696;-64
2023/12/03 06:52:36;;;;;;;22.30;5.50;;;;;;;11.70;100.00;97996.82;78578;1298;3048663;-64
2023/12/03 06:55:04;;;;;;;18.80;6.30;;;;;;;11.95;100.00;97989.55;79626;1296;3012846;-64
2023/12/03 06:57:31;;;;;;;23.50;9.10;;;;;;;12.13;99.50;97994.11;79721;1298;3011691;-63
2023/12/03 06:59:59;;;;;;;20.90;9.30;;;;;;;12.20;99.11;98000.84;78352;1295;3054393;-63
2023/12/03 07:02:25;;;;;;;22.30;7.30;;;;;;;11.89;99.37;98010.58;79620;1298;3018379;-61
2023/12/03 07:04:53;;;;;;;25.60;7.40;;;;;;;11.65;100.00;98009.58;79737;1295;3011954;-64
2023/12/03 07:07:21;;;;;;;17.90;5.60;;;;;;;12.04;99.68;97990.33;78402;1296;3049144;-63
2023/12/03 07:09:48;;;;;;;20.90;7.20;;;;;;;12.12;98.28;97985.11;79512;1297;3013523;-64
2023/12/03 07:12:15;;;;;;;24.90;8.40;;;;;;;11.92;98.99;97969.43;80029;1295;3012074;-64
2023/12/03 07:14:43;;;;;;;25.50;8.10;;;;;;;11.85;99.84;97977.76;78341;1298;3028434;-62
2023/12/03 07:17:10;;;;;;;26.90;5.90;;;;;;;11.63;100.00;97972.89;79903;1298;3013592;-63
2023/12/03 07:19:42;;;;;;;17.20;5.60;;;;;;;11.97;100.00;97976.38;79617;1295;3011937;-62
2023/12/03 07:22:11;;;;;;;20.70;6.20;;;;;;;11.98;99.64;97973.34;78438;1295;3049540;-66
2023/12/03 07:24:38;;;;;;;25.60;8.60;;;;;;;12.03;98.98;97969.91;79959;1295;3012845;-64
2023/12/03 07:27:05;;;;;;;29.70;8.60;;;;;;;11.74;99.91;97973.20;79558;1296;3011956;-63
2023/12/03 07:29:34;;;;;;;24.20;6.20;;;;;;;11.81;100.00;97976.00;78513;1298;3053390;-65
2023/12/03 07:32:02;;;;;;;22.90;5.80;;;;;;;12.30;98.69;97980.79;79633;1297;3014524;-67
2023/12/03 07:34:28;;;;;;;21.70;8.20;;;;;;;12.54;96.01;97988.10;79862;1295;3011394;-66
2023/12/03 07:36:56;;;;;;;27.00;8.10;;;;;;;12.20;97.50;98000.47;78372;1296;3049743;-65
2023/12/03 07:39:24;;;;;;;20.00;9.30;;;;;;;11.89;98.64;97994.27;79806;1296;3013354;-64
2023/12/03 07:41:51;;;;;;;19.60;5.50;;;;;;;11.94;99.42;98004.40;79596;1298;3011957;-71
2023/12/03 07:44:19;;;;;;;18.30;6.10;;;;;;;12.02;98.63;98020.50;78634;1295;3027052;-61
2023/12/03 07:46:46;;;;;;;21.90;7.40;;;;;;;12.07;97.49;98030.60;79635;1297;3012875;-61
2023/12/03 07:49:13;;;;;;;24.30;7.60;;;;;;;12.25;96.46;98037.27;79542;1295;3011563;-62
2023/12/03 07:51:41;;;;;;;24.30;8.20;;;;;;;12.18;95.74;98043.65;78684;1296;3048749;-59
2023/12/03 07:54:08;;;;;;;20.90;7.60;;;;;;;12.01;96.49;98038.33;79757;1294;3013253;-60
2023/12/03 07:56:36;;;;;;;23.10;6.70;;;;;;;11.97;96.59;98050.77;79767;1296;3011512;-62
2023/12/03 07:59:04;;;;;;;37.20;8.90;;;;;;;12.62;94.28;98048.66;78269;1298;3051808;-61
2023/12/03 08:01:31;;;;;;;24.70;9.60;;;;;;;12.68;92.98;98043.14;79735;1298;3013432;-60
2023/12/03 08:03:58;;;;;;;23.10;6.90;;;;;;;12.58;91.64;98064.80;79517;1296;3011619;-61
2023/12/03 08:06:26;;;;;;;20.20;8.10;;;;;;;12.36;91.97;98054.14;78608;1298;3049604;-61
2023/12/03 08:08:53;;;;;;;17.50;6.80;;;;;;;12.13;93.58;98069.77;79750;1295;3013156;-62
2023/12/03 08:11:20;;;;;;;20.00;5.40;;;;;;;12.15;94.23;98080.40;79485;1298;3011597;-60
2023/12/03 08:13:48;;;;;;;16.70;4.90;;;;;;;13.00;90.80;98079.77;78296;1298;3026266;-62
2023/12/03 08:16:16;;;;;;;18.30;6.40;;;;;;;12.98;88.77;98103.14;79665;1295;3013610;-60
2023/12/03 08:18:42;;;;;;;18.40;5.90;;;;;;;12.91;88.74;98103.65;79475;1296;3011870;-61
2023/12/03 08:21:11;;;;;;;20.30;6.80;;;;;;;12.62;89.27;98114.89;78335;1295;3050711;-60
2023/12/03 08:23:37;;;;;;;16.60;5.60;;;;;;;12.36;89.90;98137.58;79739;1296;3013675;-60
2023/12/03 08:26:04;;;;;;;17.50;5.80;;;;;;;12.17;92.11;98116.27;79724;1298;3011778;-61
2023/12/03 08:28:33;;;;;;;15.90;5.50;;;;;;;12.89;89.96;98117.55;78559;1298;3026220;-66
2023/12/03 08:31:00;;;;;;;20.20;7.30;;;;;;;12.90;88.04;98125.00;79681;1295;3014515;-62
2023/12/03 08:33:26;;;;;;;16.20;6.50;;;;;;;12.67;88.28;98124.77;79919;1294;3013066;-60
2023/12/03 08:35:56;;;;;;;22.20;6.50;;;;;;;12.42;89.41;98134.06;78673;1293;3047632;-60
2023/12/03 08:38:23;;;;;;;22.40;5.80;;;;;;;12.24;90.11;98131.45;79533;1295;3014826;-61
2023/12/03 08:40:50;;;;;;;14.90;5.30;;;;;;;12.17;90.92;98138.22;79675;1296;3013148;-63
2023/12/03 08:43:18;;;;;;;21.60;6.40;;;;;;;12.52;89.22;98147.22;78424;1298;3051996;-60
2023/12/03 08:45:45;;;;;;;16.70;5.80;;;;;;;12.68;88.70;98148.42;79633;1298;3013278;-61
2023/12/03 08:48:12;;;;;;;19.40;7.20;;;;;;;12.60;87.61;98149.27;79812;1298;3013208;-63
2023/12/03 08:50:40;;;;;;;17.80;6.50;;;;;;;12.34;88.10;98152.66;78528;1298;3028361;-63
2023/12/03 08:53:07;;;;;;;19.90;6.70;;;;;;;12.20;88.10;98176.20;79584;1298;3013815;-62
2023/12/03 08:55:34;;;;;;;14.80;6.30;;;;;;;12.12;89.74;98178.98;79591;1295;3011769;-62
2023/12/03 08:58:03;;;;;;;12.30;6.20;;;;;;;12.73;87.04;98173.79;78683;1298;3026163;-63
2023/12/03 09:00:30;;;;;;;18.50;6.20;;;;;;;12.87;85.38;98183.63;79730;1298;3013191;-63
2023/12/03 09:02:56;;;;;;;20.80;7.50;;;;;;;12.65;85.40;98181.89;79776;1295;3013160;-62
2023/12/03 09:05:25;;;;;;;15.30;6.40;;;;;;;12.22;87.82;98196.07;78401;1298;3048852;-64
2023/12/03 09:07:51;;;;;;;22.90;7.00;;;;;;;12.27;86.91;98189.30;79693;1295;3018751;-67
2023/12/03 09:10:19;;;;;;;19.10;5.80;;;;;;;12.27;88.18;98192.28;79849;1296;3011967;-62
2023/12/03 09:12:47;;;;;;;13.80;6.00;;;;;;;12.60;86.21;98208.48;78606;1298;3052031;-63
2023/12/03 09:15:14;;;;;;;18.10;5.60;;;;;;;12.51;85.61;98211.08;79804;1296;3018462;-65
2023/12/03 09:17:41;;;;;;;11.70;6.00;;;;;;;12.52;85.55;98207.86;79778;1299;3013103;-66
2023/12/03 09:20:10;;;;;;;12.80;6.10;;;;;;;12.33;85.57;98216.83;78582;1293;3026208;-62
2023/12/03 09:22:37;;;;;;;12.20;6.40;;;;;;;12.15;86.92;98216.53;79669;1297;3016017;-63
2023/12/03 09:25:05;;;;;;;8.00;4.00;;;;;;;12.14;87.74;98213.59;79584;1306;3011918;-65
2023/12/03 09:27:34;;;;;;;12.50;4.90;;;;;;;12.91;85.66;98214.89;78445;1298;3052144;-66
2023/12/03 09:30:01;;;;;;;11.60;5.30;;;;;;;12.95;83.57;98216.14;79812;1297;3013324;-62
2023/12/03 09:32:28;;;;;;;14.80;5.40;;;;;;;13.06;82.99;98226.23;79801;1294;3013051;-64
2023/12/03 09:34:57;;;;;;;17.00;6.00;;;;;;;12.97;82.50;98240.59;78766;1295;3049341;-63
2023/12/03 09:37:24;;;;;;;17.10;6.70;;;;;;;12.56;83.88;98252.63;79706;1297;3013889;-65
2023/12/03 09:39:50;;;;;;;15.30;7.50;;;;;;;12.62;83.52;98247.14;79721;1298;3011820;-64
2023/12/03 09:42:19;;;;;;;12.40;6.80;;;;;;;12.63;82.59;98255.70;78516;1298;3051720;-64
2023/12/03 09:44:48;;;;;;;14.90;6.30;;;;;;;12.36;80.52;98272.27;79784;1294;3013448;-63
2023/12/03 09:47:17;;;;;;;14.40;6.60;;;;;;;12.58;80.67;98267.14;79274;1296;3013362;-63
2023/12/03 09:49:46;;;;;;;15.00;7.40;;;;;;;12.97;79.06;98270.08;79483;1298;3013029;-63
2023/12/03 09:52:13;;;;;;;18.00;7.60;;;;;;;13.20;78.14;98277.34;79699;1298;3013316;-62
2023/12/03 09:54:41;;;;;;;14.90;7.40;;;;;;;13.15;78.11;98283.95;78435;1298;3049024;-63
2023/12/03 09:57:08;;;;;;;14.00;7.20;;;;;;;12.98;77.36;98282.65;79627;1298;3011753;-60
2023/12/03 09:59:35;;;;;;;13.40;7.00;;;;;;;12.92;78.29;98281.02;79578;1295;3011578;-61
2023/12/03 10:02:04;;;;;;;15.30;7.30;;;;;;;12.82;77.89;98293.02;78484;1300;3026601;-64
2023/12/03 10:04:31;;;;;;;16.20;6.80;;;;;;;12.73;77.75;98307.77;79709;1296;3013132;-62
2023/12/03 10:06:58;;;;;;;13.30;7.90;;;;;;;12.49;76.90;98323.48;79603;1295;3011762;-61
2023/12/03 10:09:26;;;;;;;15.30;9.10;;;;;;;12.23;77.22;98339.77;78451;1308;3049579;-61
2023/12/03 10:11:55;;;;;;;21.30;10.80;;;;;;;12.11;77.64;98343.70;79731;1298;3012804;-66
2023/12/03 10:14:24;;;;;;;22.00;11.30;;;;;;;12.04;76.97;98346.55;79334;1297;3011635;-62
2023/12/03 10:16:51;;;;;;;25.20;11.90;;;;;;;11.86;77.18;98350.90;79763;1294;3014356;-67
2023/12/03 10:19:24;;;;;;;22.20;12.00;;;;;;;11.68;77.17;98354.67;79789;1298;3011509;-63
2023/12/03 10:21:53;;;;;;;24.00;13.30;;;;;;;11.54;77.42;98355.81;78447;1296;3048634;-63
2023/12/03 10:24:20;;;;;;;23.80;12.90;;;;;;;11.59;77.38;98357.13;79685;1299;3013156;-63
2023/12/03 10:26:51;;;;;;;20.90;11.60;;;;;;;11.69;77.34;98363.34;79657;1298;3011924;-62
2023/12/03 10:29:19;;;;;;;17.90;8.10;;;;;;;11.54;76.86;98368.24;78519;1298;3052877;-64
2023/12/03 10:31:50;;;;;;;11.10;6.40;;;;;;;11.46;76.35;98367.83;79700;1298;3012888;-63
2023/12/03 10:34:19;;;;;;;7.00;4.00;;;;;;;11.38;76.34;98375.11;78382;1296;3055933;-62
2023/12/03 10:36:47;;;;;;;4.00;2.80;;;;;;;11.47;75.44;98382.11;79618;1298;3013221;-63
2023/12/03 10:39:19;;;;;;;8.80;3.50;;;;;;;11.40;75.43;98385.38;79278;1298;3011939;-62
2023/12/03 10:41:47;;;;;;;8.20;4.90;;;;;;;11.37;75.35;98385.88;79691;1298;3011640;-62
2023/12/03 10:44:21;;;;;;;11.60;5.20;;;;;;;11.45;75.59;98385.44;78380;1298;3028843;-65
2023/12/03 10:46:48;;;;;;;9.70;5.50;;;;;;;11.51;76.04;98393.40;79799;1299;3011548;-63
2023/12/03 10:49:16;;;;;;;12.90;8.00;;;;;;;11.45;76.86;98419.81;78662;1298;3067736;-62
2023/12/03 10:51:43;;;;;;;12.20;6.80;;;;;;;11.28;78.06;98418.70;79941;1294;3013801;-64
2023/12/03 10:54:10;;;;;;;16.80;6.60;;;;;;;11.61;77.06;98425.85;79757;1295;3011908;-62
2023/12/03 10:56:40;;;;;;;21.00;6.60;;;;;;;12.10;74.98;98438.90;78477;1296;3028378;-64
2023/12/03 10:59:11;;;;;;;16.50;6.80;;;;;;;12.30;73.88;98441.30;79490;1298;3013350;-63
2023/12/03 11:01:43;;;;;;;17.70;7.50;;;;;;;12.28;73.06;98431.98;78468;1298;3053348;-66
2023/12/03 11:04:22;;;;;;;16.50;8.50;;;;;;;12.33;72.47;98424.08;79565;1298;3013634;-61
2023/12/03 11:06:52;;;;;;;24.10;10.10;;;;;;;12.13;72.01;98425.88;78760;1298;3069016;-63
2023/12/03 11:09:20;;;;;;;24.60;10.00;;;;;;;12.02;71.22;98431.19;79563;1294;3013582;-62